Decoded Metar for LKTB (TURANY in CZECH REPUBLIC) (IATA:BRQ) | Meteo·Mobile Aviation Weather
aviador You're here:

LKTB Decoded Metar

TURANY in CZECH REPUBLIC
Report Time2019-07-16 22:30:00
UTC Time2019-07-16 22:45:20
Flight Rules vfr VFR
Wind350° at 06 kt
W.Decomp.*RWY 28: 2.3 kt HW 5.5 kt RCW
RWY 27: 1.3 kt HW 5.8 kt RCW
Visibility9999 m
Phenomena:N/A
Clouds:N/A
Expected CloudBase > 2,400 ft AGL from Temp-Dew spread
CeilingNone
Temp15°C (ISA +2)
Dew Point09°C (68% RH)
AAT12.7°C
QNH1015 hPa
Density Alt1,086 ft
Elevation807 ft
Report Wrong Elevation
Raw Report
LKTB 162230Z 35006KT CAVOK 15/09 Q1015 NOSIG=

Extra information for LKTB:More info

Metar Taf Metar & Taf Last 4 Metars F.Rules Stats Wind Profile Meteogram Temp Stats Airport Information Weather charts Add Link Nearby VenuesMetar ALERT Operation Metar Decoded Social comments